sensor_id;sensor_type;location;lat;lon;timestamp;pressure;altitude;pressure_sealevel;temperature;humidity
44140;BME280;29803;51.048;4.686;2022-07-30T00:02:05;101852.72;;;15.29;100.00
44140;BME280;29803;51.048;4.686;2022-07-30T00:04:36;101851.38;;;15.34;100.00
44140;BME280;29803;51.048;4.686;2022-07-30T00:07:07;101852.72;;;15.29;100.00
44140;BME280;29803;51.048;4.686;2022-07-30T00:09:38;101854.25;;;15.24;100.00
44140;BME280;29803;51.048;4.686;2022-07-30T00:12:08;101864.94;;;15.17;100.00
44140;BME280;29803;51.048;4.686;2022-07-30T00:14:39;101851.25;;;15.11;100.00
44140;BME280;29803;51.048;4.686;2022-07-30T00:17:10;101854.81;;;15.03;100.00
44140;BME280;29803;51.048;4.686;2022-07-30T00:19:40;101850.25;;;14.95;100.00
44140;BME280;29803;51.048;4.686;2022-07-30T00:22:11;101850.28;;;14.87;100.00
44140;BME280;29803;51.048;4.686;2022-07-30T00:24:42;101850.09;;;14.81;100.00
44140;BME280;29803;51.048;4.686;2022-07-30T00:27:12;101848.25;;;14.73;100.00
44140;BME280;29803;51.048;4.686;2022-07-30T00:29:43;101839.28;;;14.64;100.00
44140;BME280;29803;51.048;4.686;2022-07-30T00:32:14;101845.69;;;14.55;100.00
44140;BME280;29803;51.048;4.686;2022-07-30T00:34:44;101839.31;;;14.48;100.00
44140;BME280;29803;51.048;4.686;2022-07-30T00:37:15;101844.16;;;14.44;100.00
44140;BME280;29803;51.048;4.686;2022-07-30T00:39:45;101837.38;;;14.40;100.00
44140;BME280;29803;51.048;4.686;2022-07-30T00:42:16;101831.31;;;14.30;100.00
44140;BME280;29803;51.048;4.686;2022-07-30T00:44:52;101843.28;;;14.19;100.00
44140;BME280;29803;51.048;4.686;2022-07-30T00:47:23;101836.34;;;14.09;100.00
44140;BME280;29803;51.048;4.686;2022-07-30T00:49:53;101833.47;;;14.02;100.00
44140;BME280;29803;51.048;4.686;2022-07-30T00:52:24;101841.69;;;14.00;100.00
44140;BME280;29803;51.048;4.686;2022-07-30T00:54:54;101836.81;;;13.96;100.00
44140;BME280;29803;51.048;4.686;2022-07-30T00:57:26;101837.63;;;13.88;100.00
44140;BME280;29803;51.048;4.686;2022-07-30T00:59:57;101843.00;;;13.80;100.00
44140;BME280;29803;51.048;4.686;2022-07-30T01:02:27;101839.94;;;13.75;100.00
44140;BME280;29803;51.048;4.686;2022-07-30T01:04:58;101837.59;;;13.72;100.00
44140;BME280;29803;51.048;4.686;2022-07-30T01:07:29;101842.81;;;13.73;100.00
44140;BME280;29803;51.048;4.686;2022-07-30T01:10:10;101834.19;;;13.70;100.00
44140;BME280;29803;51.048;4.686;2022-07-30T01:12:50;101839.41;;;13.63;100.00
44140;BME280;29803;51.048;4.686;2022-07-30T01:15:42;101837.84;;;13.53;100.00
44140;BME280;29803;51.048;4.686;2022-07-30T01:18:27;101838.78;;;13.43;100.00
44140;BME280;29803;51.048;4.686;2022-07-30T01:21:38;101843.28;;;13.35;100.00
44140;BME280;29803;51.048;4.686;2022-07-30T01:24:37;101846.81;;;13.27;100.00
44140;BME280;29803;51.048;4.686;2022-07-30T01:27:24;101842.56;;;13.25;100.00
44140;BME280;29803;51.048;4.686;2022-07-30T01:29:56;101847.66;;;13.28;100.00
44140;BME280;29803;51.048;4.686;2022-07-30T01:32:29;101849.84;;;13.32;100.00
44140;BME280;29803;51.048;4.686;2022-07-30T01:35:04;101839.63;;;13.36;100.00
44140;BME280;29803;51.048;4.686;2022-07-30T01:37:37;101849.31;;;13.29;100.00
44140;BME280;29803;51.048;4.686;2022-07-30T01:40:08;101843.88;;;13.20;100.00
44140;BME280;29803;51.048;4.686;2022-07-30T01:42:40;101844.34;;;13.16;100.00
44140;BME280;29803;51.048;4.686;2022-07-30T01:45:12;101840.47;;;13.18;100.00
44140;BME280;29803;51.048;4.686;2022-07-30T01:47:45;101827.72;;;13.20;100.00
44140;BME280;29803;51.048;4.686;2022-07-30T01:50:16;101837.63;;;13.20;100.00
44140;BME280;29803;51.048;4.686;2022-07-30T01:52:50;101839.19;;;13.23;100.00
44140;BME280;29803;51.048;4.686;2022-07-30T01:55:29;101826.84;;;13.20;100.00
44140;BME280;29803;51.048;4.686;2022-07-30T01:58:01;101831.84;;;13.15;100.00
44140;BME280;29803;51.048;4.686;2022-07-30T02:00:35;101836.75;;;13.11;100.00
44140;BME280;29803;51.048;4.686;2022-07-30T02:03:09;101838.72;;;13.09;100.00
44140;BME280;29803;51.048;4.686;2022-07-30T02:05:42;101839.25;;;13.13;100.00
44140;BME280;29803;51.048;4.686;2022-07-30T02:08:23;101831.84;;;13.15;100.00
44140;BME280;29803;51.048;4.686;2022-07-30T02:11:03;101831.00;;;13.14;100.00
44140;BME280;29803;51.048;4.686;2022-07-30T02:16:31;101839.38;;;13.03;100.00
44140;BME280;29803;51.048;4.686;2022-07-30T02:19:21;101852.63;;;12.96;100.00
44140;BME280;29803;51.048;4.686;2022-07-30T02:22:10;101852.47;;;12.98;100.00
44140;BME280;29803;51.048;4.686;2022-07-30T02:24:42;101846.25;;;12.98;100.00
44140;BME280;29803;51.048;4.686;2022-07-30T02:27:16;101850.06;;;12.95;100.00
44140;BME280;29803;51.048;4.686;2022-07-30T02:29:48;101848.03;;;12.89;100.00
44140;BME280;29803;51.048;4.686;2022-07-30T02:32:21;101848.81;;;12.81;100.00
44140;BME280;29803;51.048;4.686;2022-07-30T02:34:58;101851.13;;;12.76;100.00
44140;BME280;29803;51.048;4.686;2022-07-30T02:37:30;101850.28;;;12.76;100.00
44140;BME280;29803;51.048;4.686;2022-07-30T02:40:02;101846.59;;;12.77;100.00
44140;BME280;29803;51.048;4.686;2022-07-30T02:42:34;101851.25;;;12.75;100.00
44140;BME280;29803;51.048;4.686;2022-07-30T02:45:06;101854.28;;;12.72;100.00
44140;BME280;29803;51.048;4.686;2022-07-30T02:47:38;101853.75;;;12.68;100.00
44140;BME280;29803;51.048;4.686;2022-07-30T02:50:11;101854.91;;;12.65;100.00
44140;BME280;29803;51.048;4.686;2022-07-30T02:52:42;101859.59;;;12.63;100.00
44140;BME280;29803;51.048;4.686;2022-07-30T02:55:14;101867.50;;;12.65;100.00
44140;BME280;29803;51.048;4.686;2022-07-30T02:57:47;101865.34;;;12.68;100.00
44140;BME280;29803;51.048;4.686;2022-07-30T03:00:20;101864.53;;;12.68;100.00
44140;BME280;29803;51.048;4.686;2022-07-30T03:02:52;101859.44;;;12.65;100.00
44140;BME280;29803;51.048;4.686;2022-07-30T03:05:25;101856.22;;;12.61;100.00
44140;BME280;29803;51.048;4.686;2022-07-30T03:07:57;101859.06;;;12.60;100.00
44140;BME280;29803;51.048;4.686;2022-07-30T03:10:29;101857.53;;;12.57;100.00
44140;BME280;29803;51.048;4.686;2022-07-30T03:13:03;101854.28;;;12.54;100.00
44140;BME280;29803;51.048;4.686;2022-07-30T03:15:35;101851.94;;;12.51;100.00
44140;BME280;29803;51.048;4.686;2022-07-30T03:18:11;101857.59;;;12.48;100.00
44140;BME280;29803;51.048;4.686;2022-07-30T03:20:45;101855.38;;;12.43;100.00
44140;BME280;29803;51.048;4.686;2022-07-30T03:23:17;101861.75;;;12.42;100.00
44140;BME280;29803;51.048;4.686;2022-07-30T03:26:05;101857.84;;;12.36;100.00
44140;BME280;29803;51.048;4.686;2022-07-30T03:28:39;101853.94;;;12.31;100.00
44140;BME280;29803;51.048;4.686;2022-07-30T03:31:10;101856.34;;;12.24;100.00
44140;BME280;29803;51.048;4.686;2022-07-30T03:33:41;101855.13;;;12.18;100.00
44140;BME280;29803;51.048;4.686;2022-07-30T03:36:12;101851.91;;;12.15;100.00
44140;BME280;29803;51.048;4.686;2022-07-30T03:38:44;101853.22;;;12.11;100.00
44140;BME280;29803;51.048;4.686;2022-07-30T03:41:16;101853.66;;;12.06;100.00
44140;BME280;29803;51.048;4.686;2022-07-30T03:43:47;101866.72;;;12.01;100.00
44140;BME280;29803;51.048;4.686;2022-07-30T03:46:18;101861.25;;;11.93;100.00
44140;BME280;29803;51.048;4.686;2022-07-30T03:48:51;101863.53;;;11.88;100.00
44140;BME280;29803;51.048;4.686;2022-07-30T03:51:22;101854.06;;;11.84;100.00
44140;BME280;29803;51.048;4.686;2022-07-30T03:53:53;101861.44;;;11.82;100.00
44140;BME280;29803;51.048;4.686;2022-07-30T03:56:24;101856.31;;;11.79;100.00
44140;BME280;29803;51.048;4.686;2022-07-30T03:58:54;101868.25;;;11.76;100.00
44140;BME280;29803;51.048;4.686;2022-07-30T04:01:25;101873.06;;;11.73;100.00
44140;BME280;29803;51.048;4.686;2022-07-30T04:04:07;101874.66;;;11.65;100.00
44140;BME280;29803;51.048;4.686;2022-07-30T04:06:38;101872.81;;;11.66;100.00
44140;BME280;29803;51.048;4.686;2022-07-30T04:09:10;101876.59;;;11.73;100.00
44140;BME280;29803;51.048;4.686;2022-07-30T04:11:41;101867.09;;;11.79;100.00
44140;BME280;29803;51.048;4.686;2022-07-30T04:14:11;101874.31;;;11.78;100.00
44140;BME280;29803;51.048;4.686;2022-07-30T04:16:46;101884.38;;;11.76;100.00
44140;BME280;29803;51.048;4.686;2022-07-30T04:19:24;101888.91;;;11.76;100.00
44140;BME280;29803;51.048;4.686;2022-07-30T04:21:56;101896.53;;;11.80;100.00
44140;BME280;29803;51.048;4.686;2022-07-30T04:24:28;101897.09;;;11.84;100.00
44140;BME280;29803;51.048;4.686;2022-07-30T04:27:01;101900.88;;;11.91;100.00
44140;BME280;29803;51.048;4.686;2022-07-30T04:29:31;101907.78;;;11.93;100.00
44140;BME280;29803;51.048;4.686;2022-07-30T04:32:02;101904.97;;;11.95;100.00
44140;BME280;29803;51.048;4.686;2022-07-30T04:34:34;101918.09;;;11.98;100.00
44140;BME280;29803;51.048;4.686;2022-07-30T04:37:04;101910.75;;;12.00;100.00
44140;BME280;29803;51.048;4.686;2022-07-30T04:39:35;101906.75;;;12.04;100.00
44140;BME280;29803;51.048;4.686;2022-07-30T04:42:05;101902.75;;;12.08;100.00
44140;BME280;29803;51.048;4.686;2022-07-30T04:44:36;101904.16;;;12.12;100.00
44140;BME280;29803;51.048;4.686;2022-07-30T04:47:07;101902.88;;;12.16;100.00
44140;BME280;29803;51.048;4.686;2022-07-30T04:49:38;101906.25;;;12.18;100.00
44140;BME280;29803;51.048;4.686;2022-07-30T04:52:10;101906.25;;;12.18;100.00
44140;BME280;29803;51.048;4.686;2022-07-30T04:54:45;101906.78;;;12.22;100.00
44140;BME280;29803;51.048;4.686;2022-07-30T04:57:19;101908.03;;;12.28;100.00
44140;BME280;29803;51.048;4.686;2022-07-30T04:59:50;101911.94;;;12.33;100.00
44140;BME280;29803;51.048;4.686;2022-07-30T05:02:21;101909.53;;;12.40;100.00
44140;BME280;29803;51.048;4.686;2022-07-30T05:04:55;101914.81;;;12.50;100.00
44140;BME280;29803;51.048;4.686;2022-07-30T05:07:26;101909.69;;;12.56;100.00
44140;BME280;29803;51.048;4.686;2022-07-30T05:09:57;101910.19;;;12.60;100.00
44140;BME280;29803;51.048;4.686;2022-07-30T05:12:45;101908.22;;;12.62;100.00
44140;BME280;29803;51.048;4.686;2022-07-30T05:15:15;101909.06;;;12.62;100.00
44140;BME280;29803;51.048;4.686;2022-07-30T05:17:47;101917.31;;;12.61;100.00
44140;BME280;29803;51.048;4.686;2022-07-30T05:20:17;101916.13;;;12.63;100.00
44140;BME280;29803;51.048;4.686;2022-07-30T05:22:48;101919.22;;;12.68;100.00
44140;BME280;29803;51.048;4.686;2022-07-30T05:25:18;101922.81;;;12.77;100.00
44140;BME280;29803;51.048;4.686;2022-07-30T05:27:49;101930.81;;;12.87;100.00
44140;BME280;29803;51.048;4.686;2022-07-30T05:30:20;101937.66;;;12.99;100.00
44140;BME280;29803;51.048;4.686;2022-07-30T05:32:51;101921.25;;;13.10;100.00
44140;BME280;29803;51.048;4.686;2022-07-30T05:35:21;101926.09;;;13.25;100.00
44140;BME280;29803;51.048;4.686;2022-07-30T05:37:52;101924.97;;;13.35;100.00
44140;BME280;29803;51.048;4.686;2022-07-30T05:40:23;101928.66;;;13.52;100.00
44140;BME280;29803;51.048;4.686;2022-07-30T05:42:53;101927.91;;;13.68;100.00
44140;BME280;29803;51.048;4.686;2022-07-30T05:45:24;101931.38;;;13.86;100.00
44140;BME280;29803;51.048;4.686;2022-07-30T05:47:54;101933.13;;;14.04;100.00
44140;BME280;29803;51.048;4.686;2022-07-30T05:50:25;101929.31;;;14.22;100.00
44140;BME280;29803;51.048;4.686;2022-07-30T05:52:55;101937.63;;;14.37;100.00
44140;BME280;29803;51.048;4.686;2022-07-30T05:55:27;101943.09;;;14.54;100.00
44140;BME280;29803;51.048;4.686;2022-07-30T05:57:58;101942.97;;;14.71;100.00
44140;BME280;29803;51.048;4.686;2022-07-30T06:00:28;101944.66;;;14.97;100.00
44140;BME280;29803;51.048;4.686;2022-07-30T06:02:59;101942.31;;;15.26;100.00
44140;BME280;29803;51.048;4.686;2022-07-30T06:05:29;101939.94;;;16.03;100.00
44140;BME280;29803;51.048;4.686;2022-07-30T06:08:01;101941.78;;;16.73;100.00
44140;BME280;29803;51.048;4.686;2022-07-30T06:10:32;101940.69;;;17.58;100.00
44140;BME280;29803;51.048;4.686;2022-07-30T06:13:03;101925.09;;;18.41;100.00
44140;BME280;29803;51.048;4.686;2022-07-30T06:15:33;101925.00;;;19.13;100.00
44140;BME280;29803;51.048;4.686;2022-07-30T06:18:04;101934.28;;;19.81;100.00
44140;BME280;29803;51.048;4.686;2022-07-30T06:20:34;101937.88;;;20.36;100.00
44140;BME280;29803;51.048;4.686;2022-07-30T06:23:05;101941.13;;;20.73;100.00
44140;BME280;29803;51.048;4.686;2022-07-30T06:25:36;101946.84;;;20.85;100.00
44140;BME280;29803;51.048;4.686;2022-07-30T06:28:06;101945.16;;;20.84;100.00
44140;BME280;29803;51.048;4.686;2022-07-30T06:30:37;101949.63;;;21.31;100.00
44140;BME280;29803;51.048;4.686;2022-07-30T06:33:07;101946.66;;;21.59;100.00
44140;BME280;29803;51.048;4.686;2022-07-30T06:35:38;101945.97;;;21.77;100.00
44140;BME280;29803;51.048;4.686;2022-07-30T06:38:08;101948.69;;;21.90;100.00
44140;BME280;29803;51.048;4.686;2022-07-30T06:40:39;101950.50;;;22.16;100.00
44140;BME280;29803;51.048;4.686;2022-07-30T06:43:09;101949.13;;;22.77;100.00
44140;BME280;29803;51.048;4.686;2022-07-30T06:45:40;101949.38;;;23.07;100.00
44140;BME280;29803;51.048;4.686;2022-07-30T06:48:10;101959.69;;;23.80;100.00
44140;BME280;29803;51.048;4.686;2022-07-30T06:50:41;101956.63;;;23.70;100.00
44140;BME280;29803;51.048;4.686;2022-07-30T06:53:11;101947.47;;;23.33;100.00
44140;BME280;29803;51.048;4.686;2022-07-30T06:55:42;101955.72;;;23.51;100.00
44140;BME280;29803;51.048;4.686;2022-07-30T06:58:12;101954.06;;;25.02;100.00
44140;BME280;29803;51.048;4.686;2022-07-30T07:00:43;101956.44;;;24.57;100.00
44140;BME280;29803;51.048;4.686;2022-07-30T07:03:14;101954.78;;;24.56;100.00
44140;BME280;29803;51.048;4.686;2022-07-30T07:05:44;101949.97;;;24.93;100.00
44140;BME280;29803;51.048;4.686;2022-07-30T07:08:15;101965.38;;;25.36;100.00
44140;BME280;29803;51.048;4.686;2022-07-30T07:10:45;101964.16;;;25.43;100.00
44140;BME280;29803;51.048;4.686;2022-07-30T07:13:16;101964.25;;;25.95;100.00
44140;BME280;29803;51.048;4.686;2022-07-30T07:15:46;101959.03;;;25.47;100.00
44140;BME280;29803;51.048;4.686;2022-07-30T07:18:17;101960.09;;;24.80;100.00
44140;BME280;29803;51.048;4.686;2022-07-30T07:20:47;101962.59;;;24.82;100.00
44140;BME280;29803;51.048;4.686;2022-07-30T07:23:18;101965.56;;;26.04;100.00
44140;BME280;29803;51.048;4.686;2022-07-30T07:25:48;101969.31;;;26.39;100.00
44140;BME280;29803;51.048;4.686;2022-07-30T07:28:19;101965.78;;;26.26;100.00
44140;BME280;29803;51.048;4.686;2022-07-30T07:30:49;101960.56;;;26.42;100.00
44140;BME280;29803;51.048;4.686;2022-07-30T07:33:20;101962.41;;;26.65;99.61
44140;BME280;29803;51.048;4.686;2022-07-30T07:35:51;101965.84;;;26.43;100.00
44140;BME280;29803;51.048;4.686;2022-07-30T07:38:23;101971.56;;;26.01;100.00
44140;BME280;29803;51.048;4.686;2022-07-30T07:40:54;101962.09;;;26.21;100.00
44140;BME280;29803;51.048;4.686;2022-07-30T07:43:25;101953.28;;;25.72;100.00
44140;BME280;29803;51.048;4.686;2022-07-30T07:45:57;101963.47;;;26.92;95.57
44140;BME280;29803;51.048;4.686;2022-07-30T07:48:27;101966.22;;;26.92;94.54
44140;BME280;29803;51.048;4.686;2022-07-30T07:50:58;101968.00;;;26.41;97.01
44140;BME280;29803;51.048;4.686;2022-07-30T07:53:28;101968.69;;;26.48;95.62
44140;BME280;29803;51.048;4.686;2022-07-30T07:55:59;101967.47;;;27.01;87.08
44140;BME280;29803;51.048;4.686;2022-07-30T07:58:30;101965.69;;;26.78;87.53
44140;BME280;29803;51.048;4.686;2022-07-30T08:01:00;101962.22;;;26.54;89.94
44140;BME280;29803;51.048;4.686;2022-07-30T08:03:31;101964.56;;;26.63;89.87
44140;BME280;29803;51.048;4.686;2022-07-30T08:06:01;101964.44;;;26.29;100.00
44140;BME280;29803;51.048;4.686;2022-07-30T08:08:32;101953.53;;;26.46;99.13
44140;BME280;29803;51.048;4.686;2022-07-30T08:11:04;101952.09;;;26.72;96.13
44140;BME280;29803;51.048;4.686;2022-07-30T08:13:35;101951.78;;;27.02;91.63
44140;BME280;29803;51.048;4.686;2022-07-30T08:16:06;101951.22;;;27.89;80.31
44140;BME280;29803;51.048;4.686;2022-07-30T08:18:39;101948.59;;;27.99;77.65
44140;BME280;29803;51.048;4.686;2022-07-30T08:21:10;101949.03;;;27.91;78.18
44140;BME280;29803;51.048;4.686;2022-07-30T08:23:40;101955.28;;;28.03;77.22
44140;BME280;29803;51.048;4.686;2022-07-30T08:26:11;101953.94;;;27.50;82.14
44140;BME280;29803;51.048;4.686;2022-07-30T08:28:41;101955.59;;;27.85;78.02
44140;BME280;29803;51.048;4.686;2022-07-30T08:31:12;101945.34;;;27.63;78.06
44140;BME280;29803;51.048;4.686;2022-07-30T08:33:43;101942.50;;;27.75;72.90
44140;BME280;29803;51.048;4.686;2022-07-30T08:36:13;101943.31;;;27.76;73.03
44140;BME280;29803;51.048;4.686;2022-07-30T08:38:43;101943.25;;;27.71;70.16
44140;BME280;29803;51.048;4.686;2022-07-30T08:41:18;101935.06;;;27.76;70.78
44140;BME280;29803;51.048;4.686;2022-07-30T08:43:49;101932.56;;;27.57;74.15
44140;BME280;29803;51.048;4.686;2022-07-30T08:46:23;101930.09;;;27.39;76.85
44140;BME280;29803;51.048;4.686;2022-07-30T08:48:54;101923.75;;;27.39;73.27
44140;BME280;29803;51.048;4.686;2022-07-30T08:51:25;101929.16;;;27.00;74.60
44140;BME280;29803;51.048;4.686;2022-07-30T08:53:56;101934.19;;;27.36;72.79
44140;BME280;29803;51.048;4.686;2022-07-30T08:56:27;101936.28;;;27.46;71.84
44140;BME280;29803;51.048;4.686;2022-07-30T08:59:00;101935.31;;;27.74;71.87
44140;BME280;29803;51.048;4.686;2022-07-30T09:01:30;101947.19;;;28.41;67.95
44140;BME280;29803;51.048;4.686;2022-07-30T09:04:01;101942.09;;;28.54;67.66
44140;BME280;29803;51.048;4.686;2022-07-30T09:06:32;101946.94;;;28.69;65.52
44140;BME280;29803;51.048;4.686;2022-07-30T09:09:02;101945.53;;;28.67;67.46
44140;BME280;29803;51.048;4.686;2022-07-30T09:11:33;101944.47;;;28.46;68.12
44140;BME280;29803;51.048;4.686;2022-07-30T09:14:07;101953.69;;;28.07;72.35
44140;BME280;29803;51.048;4.686;2022-07-30T09:16:39;101952.41;;;28.64;66.91
44140;BME280;29803;51.048;4.686;2022-07-30T09:22:00;101955.09;;;28.32;70.70
44140;BME280;29803;51.048;4.686;2022-07-30T09:24:40;101952.00;;;28.50;72.05
44140;BME280;29803;51.048;4.686;2022-07-30T09:27:12;101945.56;;;29.31;62.72
44140;BME280;29803;51.048;4.686;2022-07-30T09:29:42;101940.31;;;28.70;68.44
44140;BME280;29803;51.048;4.686;2022-07-30T09:32:13;101942.88;;;28.50;67.54
44140;BME280;29803;51.048;4.686;2022-07-30T09:34:44;101940.03;;;29.31;62.65
44140;BME280;29803;51.048;4.686;2022-07-30T09:37:17;101940.53;;;28.63;67.53
44140;BME280;29803;51.048;4.686;2022-07-30T09:39:48;101940.28;;;28.38;71.14
44140;BME280;29803;51.048;4.686;2022-07-30T09:42:20;101938.66;;;28.20;68.22
44140;BME280;29803;51.048;4.686;2022-07-30T09:44:52;101935.13;;;28.25;66.28
44140;BME280;29803;51.048;4.686;2022-07-30T09:47:36;101935.06;;;28.96;64.01
44140;BME280;29803;51.048;4.686;2022-07-30T09:50:11;101936.63;;;28.91;63.12
44140;BME280;29803;51.048;4.686;2022-07-30T09:52:43;101930.53;;;29.16;62.81
44140;BME280;29803;51.048;4.686;2022-07-30T09:55:14;101930.13;;;29.77;57.38
44140;BME280;29803;51.048;4.686;2022-07-30T09:58:13;101931.22;;;29.34;57.71
44140;BME280;29803;51.048;4.686;2022-07-30T10:00:44;101927.34;;;28.71;60.64
44140;BME280;29803;51.048;4.686;2022-07-30T10:03:19;101925.06;;;28.13;64.09
44140;BME280;29803;51.048;4.686;2022-07-30T10:05:52;101922.81;;;28.10;63.01
44140;BME280;29803;51.048;4.686;2022-07-30T10:11:30;101928.06;;;29.20;62.89
44140;BME280;29803;51.048;4.686;2022-07-30T10:14:02;101934.56;;;29.41;60.39
44140;BME280;29803;51.048;4.686;2022-07-30T10:16:33;101934.66;;;28.82;61.24
44140;BME280;29803;51.048;4.686;2022-07-30T10:19:03;101935.53;;;28.60;59.12
44140;BME280;29803;51.048;4.686;2022-07-30T10:21:34;101929.22;;;28.16;62.75
44140;BME280;29803;51.048;4.686;2022-07-30T10:24:05;101922.63;;;27.95;61.76
44140;BME280;29803;51.048;4.686;2022-07-30T10:26:36;101927.91;;;27.97;64.09
44140;BME280;29803;51.048;4.686;2022-07-30T10:29:07;101925.06;;;28.13;60.05
44140;BME280;29803;51.048;4.686;2022-07-30T10:31:38;101931.34;;;27.48;65.84
44140;BME280;29803;51.048;4.686;2022-07-30T10:34:08;101921.78;;;27.17;65.88
44140;BME280;29803;51.048;4.686;2022-07-30T10:36:43;101927.44;;;27.66;64.51
44140;BME280;29803;51.048;4.686;2022-07-30T10:39:19;101933.59;;;27.34;65.58
44140;BME280;29803;51.048;4.686;2022-07-30T10:42:23;101929.75;;;27.35;66.69
44140;BME280;29803;51.048;4.686;2022-07-30T10:47:50;101939.06;;;27.68;66.47
44140;BME280;29803;51.048;4.686;2022-07-30T10:50:23;101936.41;;;27.95;66.11
44140;BME280;29803;51.048;4.686;2022-07-30T10:52:58;101932.94;;;28.49;61.98
44140;BME280;29803;51.048;4.686;2022-07-30T10:55:32;101935.22;;;28.84;60.67
44140;BME280;29803;51.048;4.686;2022-07-30T11:03:27;101916.25;;;28.93;59.12
44140;BME280;29803;51.048;4.686;2022-07-30T11:08:48;101922.78;;;28.54;60.43
44140;BME280;29803;51.048;4.686;2022-07-30T11:14:05;101920.47;;;28.46;61.00
44140;BME280;29803;51.048;4.686;2022-07-30T11:19:07;101916.53;;;28.37;60.58
44140;BME280;29803;51.048;4.686;2022-07-30T11:21:38;101907.47;;;28.20;62.00
44140;BME280;29803;51.048;4.686;2022-07-30T11:30:39;101900.84;;;28.70;59.86
44140;BME280;29803;51.048;4.686;2022-07-30T11:35:41;101902.31;;;28.77;60.12
44140;BME280;29803;51.048;4.686;2022-07-30T11:38:13;101900.84;;;28.70;57.71
44140;BME280;29803;51.048;4.686;2022-07-30T11:43:19;101892.22;;;28.34;58.74
44140;BME280;29803;51.048;4.686;2022-07-30T11:46:05;101902.44;;;28.11;58.73
44140;BME280;29803;51.048;4.686;2022-07-30T11:48:39;101895.81;;;28.34;58.14
44140;BME280;29803;51.048;4.686;2022-07-30T11:51:10;101900.88;;;28.75;56.32
44140;BME280;29803;51.048;4.686;2022-07-30T11:53:41;101892.69;;;28.85;55.24
44140;BME280;29803;51.048;4.686;2022-07-30T11:56:13;101898.03;;;28.97;55.72
44140;BME280;29803;51.048;4.686;2022-07-30T11:58:45;101903.84;;;28.95;55.30
44140;BME280;29803;51.048;4.686;2022-07-30T12:01:16;101892.81;;;28.95;54.35
44140;BME280;29803;51.048;4.686;2022-07-30T12:03:46;101905.25;;;29.35;51.39
44140;BME280;29803;51.048;4.686;2022-07-30T12:06:17;101907.91;;;29.20;49.97
44140;BME280;29803;51.048;4.686;2022-07-30T12:08:50;101916.44;;;28.86;51.20
44140;BME280;29803;51.048;4.686;2022-07-30T12:11:22;101910.31;;;28.79;52.68
44140;BME280;29803;51.048;4.686;2022-07-30T12:13:56;101915.00;;;28.78;53.25
44140;BME280;29803;51.048;4.686;2022-07-30T12:16:29;101905.13;;;28.55;52.38
44140;BME280;29803;51.048;4.686;2022-07-30T12:19:02;101904.22;;;28.23;52.22
44140;BME280;29803;51.048;4.686;2022-07-30T12:21:33;101905.03;;;28.01;52.59
44140;BME280;29803;51.048;4.686;2022-07-30T12:24:04;101900.13;;;28.03;54.50
44140;BME280;29803;51.048;4.686;2022-07-30T12:26:36;101901.47;;;28.50;52.37
44140;BME280;29803;51.048;4.686;2022-07-30T12:29:08;101892.09;;;28.78;53.31
44140;BME280;29803;51.048;4.686;2022-07-30T12:31:40;101883.94;;;28.93;50.23
44140;BME280;29803;51.048;4.686;2022-07-30T12:34:28;101894.13;;;28.93;48.46
44140;BME280;29803;51.048;4.686;2022-07-30T12:37:17;101884.94;;;28.82;49.07
44140;BME280;29803;51.048;4.686;2022-07-30T12:39:48;101885.41;;;28.74;49.84
44140;BME280;29803;51.048;4.686;2022-07-30T12:42:19;101888.66;;;28.65;50.03
44140;BME280;29803;51.048;4.686;2022-07-30T12:44:50;101891.13;;;28.94;50.63
44140;BME280;29803;51.048;4.686;2022-07-30T12:47:23;101879.72;;;29.18;50.97
44140;BME280;29803;51.048;4.686;2022-07-30T12:49:57;101883.34;;;29.71;50.32
44140;BME280;29803;51.048;4.686;2022-07-30T12:52:31;101885.59;;;29.74;50.57
44140;BME280;29803;51.048;4.686;2022-07-30T12:55:18;101886.19;;;29.91;48.74
44140;BME280;29803;51.048;4.686;2022-07-30T12:57:52;101881.34;;;29.56;48.36
44140;BME280;29803;51.048;4.686;2022-07-30T13:00:26;101878.50;;;29.51;48.81
44140;BME280;29803;51.048;4.686;2022-07-30T13:02:57;101871.28;;;29.39;48.11
44140;BME280;29803;51.048;4.686;2022-07-30T13:05:43;101867.63;;;29.29;49.33
44140;BME280;29803;51.048;4.686;2022-07-30T13:08:14;101859.88;;;29.31;50.54
44140;BME280;29803;51.048;4.686;2022-07-30T13:11:04;101865.97;;;29.80;50.15
44140;BME280;29803;51.048;4.686;2022-07-30T13:13:34;101861.03;;;29.92;48.50
44140;BME280;29803;51.048;4.686;2022-07-30T13:16:06;101872.63;;;29.84;49.98
44140;BME280;29803;51.048;4.686;2022-07-30T13:18:37;101868.66;;;29.60;48.31
44140;BME280;29803;51.048;4.686;2022-07-30T13:21:08;101861.84;;;29.35;50.77
44140;BME280;29803;51.048;4.686;2022-07-30T13:23:39;101870.06;;;29.62;50.88
44140;BME280;29803;51.048;4.686;2022-07-30T13:26:10;101856.28;;;29.73;48.55
44140;BME280;29803;51.048;4.686;2022-07-30T13:28:41;101857.72;;;29.38;49.08
44140;BME280;29803;51.048;4.686;2022-07-30T13:31:12;101863.25;;;29.38;47.79
44140;BME280;29803;51.048;4.686;2022-07-30T13:33:43;101865.63;;;29.19;50.17
44140;BME280;29803;51.048;4.686;2022-07-30T13:36:13;101857.50;;;29.02;49.21
44140;BME280;29803;51.048;4.686;2022-07-30T13:38:44;101853.06;;;29.01;50.75
44140;BME280;29803;51.048;4.686;2022-07-30T13:41:15;101850.44;;;28.84;50.74
44140;BME280;29803;51.048;4.686;2022-07-30T13:43:47;101852.47;;;28.94;49.21
44140;BME280;29803;51.048;4.686;2022-07-30T13:46:18;101850.03;;;28.71;50.45
44140;BME280;29803;51.048;4.686;2022-07-30T13:48:48;101844.75;;;28.64;51.94
44140;BME280;29803;51.048;4.686;2022-07-30T13:51:19;101841.31;;;28.84;53.57